sensor_id;sensor_type;location;lat;lon;timestamp;pressure;altitude;pressure_sealevel;temperature;humidity
81397;BME280;70852;49.908;8.126;2023-07-30T00:01:50;99724.03;;;19.19;73.00
81397;BME280;70852;49.908;8.126;2023-07-30T00:04:16;99721.25;;;19.15;73.32
81397;BME280;70852;49.908;8.126;2023-07-30T00:06:41;99717.63;;;19.15;72.96
81397;BME280;70852;49.908;8.126;2023-07-30T00:09:09;99720.38;;;19.08;72.72
81397;BME280;70852;49.908;8.126;2023-07-30T00:11:39;99718.41;;;19.12;73.59
81397;BME280;70852;49.908;8.126;2023-07-30T00:14:04;99714.78;;;19.08;73.84
81397;BME280;70852;49.908;8.126;2023-07-30T00:16:30;99719.63;;;19.14;73.05
81397;BME280;70852;49.908;8.126;2023-07-30T00:18:59;99721.66;;;19.17;73.35
81397;BME280;70852;49.908;8.126;2023-07-30T00:21:27;99726.84;;;19.15;73.03
81397;BME280;70852;49.908;8.126;2023-07-30T00:23:54;99727.66;;;19.19;73.01
81397;BME280;70852;49.908;8.126;2023-07-30T00:26:22;99727.66;;;19.16;72.72
81397;BME280;70852;49.908;8.126;2023-07-30T00:28:49;99736.84;;;19.20;73.68
81397;BME280;70852;49.908;8.126;2023-07-30T00:31:16;99735.63;;;19.14;73.70
81397;BME280;70852;49.908;8.126;2023-07-30T00:33:42;99733.56;;;19.07;73.35
81397;BME280;70852;49.908;8.126;2023-07-30T00:36:07;99733.97;;;19.06;73.06
81397;BME280;70852;49.908;8.126;2023-07-30T00:38:35;99744.38;;;19.09;73.11
81397;BME280;70852;49.908;8.126;2023-07-30T00:41:03;99738.31;;;18.99;71.74
81397;BME280;70852;49.908;8.126;2023-07-30T00:43:28;99739.19;;;19.11;71.36
81397;BME280;70852;49.908;8.126;2023-07-30T00:45:54;99735.63;;;19.14;70.58
81397;BME280;70852;49.908;8.126;2023-07-30T00:48:19;99738.44;;;19.14;70.96
81397;BME280;70852;49.908;8.126;2023-07-30T00:50:47;99746.78;;;19.10;71.34
81397;BME280;70852;49.908;8.126;2023-07-30T00:53:14;99736.84;;;19.16;69.59
81397;BME280;70852;49.908;8.126;2023-07-30T00:55:39;99732.41;;;19.12;69.79
81397;BME280;70852;49.908;8.126;2023-07-30T00:58:05;99730.84;;;19.18;69.55
81397;BME280;70852;49.908;8.126;2023-07-30T01:00:31;99744.06;;;19.17;69.84
81397;BME280;70852;49.908;8.126;2023-07-30T01:02:57;99744.44;;;19.19;70.13
81397;BME280;70852;49.908;8.126;2023-07-30T01:05:22;99753.66;;;19.20;69.41
81397;BME280;70852;49.908;8.126;2023-07-30T01:07:48;99753.22;;;19.18;69.21
81397;BME280;70852;49.908;8.126;2023-07-30T01:10:13;99745.25;;;19.16;69.20
81397;BME280;70852;49.908;8.126;2023-07-30T01:12:40;99754.47;;;19.24;70.03
81397;BME280;70852;49.908;8.126;2023-07-30T01:15:07;99752.47;;;19.24;69.61
81397;BME280;70852;49.908;8.126;2023-07-30T01:17:36;99762.91;;;19.31;71.21
81397;BME280;70852;49.908;8.126;2023-07-30T01:20:04;99762.88;;;19.24;70.14
81397;BME280;70852;49.908;8.126;2023-07-30T01:22:30;99761.22;;;19.16;72.24
81397;BME280;70852;49.908;8.126;2023-07-30T01:24:58;99759.56;;;19.08;71.62
81397;BME280;70852;49.908;8.126;2023-07-30T01:27:26;99755.56;;;19.05;71.52
81397;BME280;70852;49.908;8.126;2023-07-30T01:32:33;99770.75;;;19.08;71.97
81397;BME280;70852;49.908;8.126;2023-07-30T01:35:03;99766.38;;;19.07;70.75
81397;BME280;70852;49.908;8.126;2023-07-30T01:37:29;99763.91;;;19.01;72.64
81397;BME280;70852;49.908;8.126;2023-07-30T01:39:55;99763.16;;;19.08;71.66
81397;BME280;70852;49.908;8.126;2023-07-30T01:42:21;99776.34;;;19.08;72.21
81397;BME280;70852;49.908;8.126;2023-07-30T01:44:46;99776.34;;;19.04;72.38
81397;BME280;70852;49.908;8.126;2023-07-30T01:47:11;99782.44;;;19.17;72.21
81397;BME280;70852;49.908;8.126;2023-07-30T01:49:37;99783.97;;;19.11;72.22
81397;BME280;70852;49.908;8.126;2023-07-30T01:52:02;99792.00;;;19.12;72.64
81397;BME280;70852;49.908;8.126;2023-07-30T01:54:28;99789.94;;;19.06;72.22
81397;BME280;70852;49.908;8.126;2023-07-30T01:56:57;99799.50;;;19.01;71.81
81397;BME280;70852;49.908;8.126;2023-07-30T01:59:23;99801.44;;;18.97;72.32
81397;BME280;70852;49.908;8.126;2023-07-30T02:01:50;99796.34;;;19.06;72.12
81397;BME280;70852;49.908;8.126;2023-07-30T02:04:18;99789.53;;;19.07;72.74
81397;BME280;70852;49.908;8.126;2023-07-30T02:06:50;99788.38;;;19.12;72.44
81397;BME280;70852;49.908;8.126;2023-07-30T02:09:18;99786.34;;;19.09;74.81
81397;BME280;70852;49.908;8.126;2023-07-30T02:11:43;99785.94;;;19.03;74.82
81397;BME280;70852;49.908;8.126;2023-07-30T02:14:09;99794.66;;;18.98;72.73
81397;BME280;70852;49.908;8.126;2023-07-30T02:16:35;99797.38;;;18.87;74.36
81397;BME280;70852;49.908;8.126;2023-07-30T02:19:00;99803.00;;;18.91;73.67
81397;BME280;70852;49.908;8.126;2023-07-30T02:21:27;99810.97;;;18.89;74.53
81397;BME280;70852;49.908;8.126;2023-07-30T02:23:55;99804.16;;;18.83;72.94
81397;BME280;70852;49.908;8.126;2023-07-30T02:26:23;99818.56;;;18.88;73.21
81397;BME280;70852;49.908;8.126;2023-07-30T02:28:51;99815.38;;;18.90;73.73
81397;BME280;70852;49.908;8.126;2023-07-30T02:31:18;99810.22;;;18.92;72.56
81397;BME280;70852;49.908;8.126;2023-07-30T02:33:46;99808.56;;;18.87;73.47
81397;BME280;70852;49.908;8.126;2023-07-30T02:36:11;99811.81;;;18.93;72.61
81397;BME280;70852;49.908;8.126;2023-07-30T02:38:37;99812.91;;;18.81;73.36
81397;BME280;70852;49.908;8.126;2023-07-30T02:41:02;99804.88;;;18.76;74.01
81397;BME280;70852;49.908;8.126;2023-07-30T02:43:27;99798.47;;;18.72;74.14
81397;BME280;70852;49.908;8.126;2023-07-30T02:45:57;99803.19;;;18.64;74.54
81397;BME280;70852;49.908;8.126;2023-07-30T02:48:22;99803.59;;;18.67;74.99
81397;BME280;70852;49.908;8.126;2023-07-30T02:50:50;99807.56;;;18.62;74.91
81397;BME280;70852;49.908;8.126;2023-07-30T02:53:18;99811.84;;;18.56;73.55
81397;BME280;70852;49.908;8.126;2023-07-30T02:55:43;99819.03;;;18.53;73.80
81397;BME280;70852;49.908;8.126;2023-07-30T02:58:10;99814.72;;;18.59;74.64
81397;BME280;70852;49.908;8.126;2023-07-30T03:00:36;99824.28;;;18.58;73.90
81397;BME280;70852;49.908;8.126;2023-07-30T03:03:04;99825.44;;;18.54;73.36
81397;BME280;70852;49.908;8.126;2023-07-30T03:05:34;99816.22;;;18.53;74.27
81397;BME280;70852;49.908;8.126;2023-07-30T03:08:02;99816.25;;;18.57;74.86
81397;BME280;70852;49.908;8.126;2023-07-30T03:10:27;99811.50;;;18.57;74.46
81397;BME280;70852;49.908;8.126;2023-07-30T03:12:55;99812.41;;;18.69;74.73
81397;BME280;70852;49.908;8.126;2023-07-30T03:15:20;99805.56;;;18.66;73.68
81397;BME280;70852;49.908;8.126;2023-07-30T03:17:48;99805.94;;;18.61;73.94
81397;BME280;70852;49.908;8.126;2023-07-30T03:20:13;99808.56;;;18.47;72.34
81397;BME280;70852;49.908;8.126;2023-07-30T03:22:39;99817.38;;;18.49;72.90
81397;BME280;70852;49.908;8.126;2023-07-30T03:25:04;99824.50;;;18.43;72.25
81397;BME280;70852;49.908;8.126;2023-07-30T03:27:32;99822.97;;;18.49;71.52
81397;BME280;70852;49.908;8.126;2023-07-30T03:30:00;99824.63;;;18.57;70.91
81397;BME280;70852;49.908;8.126;2023-07-30T03:32:27;99819.94;;;18.61;72.20
81397;BME280;70852;49.908;8.126;2023-07-30T03:34:52;99825.94;;;18.63;72.51
81397;BME280;70852;49.908;8.126;2023-07-30T03:37:18;99830.34;;;18.64;71.13
81397;BME280;70852;49.908;8.126;2023-07-30T03:39:43;99828.25;;;18.57;71.44
81397;BME280;70852;49.908;8.126;2023-07-30T03:42:11;99823.00;;;18.52;71.33
81397;BME280;70852;49.908;8.126;2023-07-30T03:44:39;99817.31;;;18.45;72.04
81397;BME280;70852;49.908;8.126;2023-07-30T03:47:04;99817.00;;;18.50;71.86
81397;BME280;70852;49.908;8.126;2023-07-30T03:49:32;99804.16;;;18.46;72.87
81397;BME280;70852;49.908;8.126;2023-07-30T03:51:57;99817.69;;;18.40;72.87
81397;BME280;70852;49.908;8.126;2023-07-30T03:54:23;99811.72;;;18.42;73.18
81397;BME280;70852;49.908;8.126;2023-07-30T03:56:50;99811.72;;;18.42;72.41
81397;BME280;70852;49.908;8.126;2023-07-30T03:59:18;99814.13;;;18.43;72.09
81397;BME280;70852;49.908;8.126;2023-07-30T04:01:45;99815.25;;;18.39;71.05
81397;BME280;70852;49.908;8.126;2023-07-30T04:04:13;99815.22;;;18.35;72.08
81397;BME280;70852;49.908;8.126;2023-07-30T04:06:38;99823.69;;;18.42;72.48
81397;BME280;70852;49.908;8.126;2023-07-30T04:09:06;99829.25;;;18.39;73.35
81397;BME280;70852;49.908;8.126;2023-07-30T04:11:34;99826.44;;;18.39;72.08
81397;BME280;70852;49.908;8.126;2023-07-30T04:14:02;99834.94;;;18.49;71.54
81397;BME280;70852;49.908;8.126;2023-07-30T04:16:30;99844.47;;;18.45;71.90
81397;BME280;70852;49.908;8.126;2023-07-30T04:18:57;99842.47;;;18.42;72.57
81397;BME280;70852;49.908;8.126;2023-07-30T04:21:23;99848.88;;;18.42;72.54
81397;BME280;70852;49.908;8.126;2023-07-30T04:23:50;99852.78;;;18.38;72.48
81397;BME280;70852;49.908;8.126;2023-07-30T04:26:16;99853.66;;;18.45;72.78
81397;BME280;70852;49.908;8.126;2023-07-30T04:28:42;99858.94;;;18.50;73.14
81397;BME280;70852;49.908;8.126;2023-07-30T04:31:14;99853.72;;;18.49;72.63
81397;BME280;70852;49.908;8.126;2023-07-30T04:33:42;99844.84;;;18.40;73.30
81397;BME280;70852;49.908;8.126;2023-07-30T04:36:09;99861.94;;;18.35;73.24
81397;BME280;70852;49.908;8.126;2023-07-30T04:38:35;99855.53;;;18.34;74.25
81397;BME280;70852;49.908;8.126;2023-07-30T04:41:03;99853.53;;;18.35;72.55
81397;BME280;70852;49.908;8.126;2023-07-30T04:43:32;99851.09;;;18.29;73.44
81397;BME280;70852;49.908;8.126;2023-07-30T04:46:02;99853.16;;;18.33;73.53
81397;BME280;70852;49.908;8.126;2023-07-30T04:48:27;99851.97;;;18.37;73.71
81397;BME280;70852;49.908;8.126;2023-07-30T04:50:52;99846.69;;;18.28;73.89
81397;BME280;70852;49.908;8.126;2023-07-30T04:53:18;99845.53;;;18.29;74.34
81397;BME280;70852;49.908;8.126;2023-07-30T04:55:45;99842.47;;;18.42;74.64
81397;BME280;70852;49.908;8.126;2023-07-30T04:58:11;99851.59;;;18.39;75.21
81397;BME280;70852;49.908;8.126;2023-07-30T05:00:38;99854.03;;;18.44;74.37
81397;BME280;70852;49.908;8.126;2023-07-30T05:03:06;99854.56;;;18.53;74.94
81397;BME280;70852;49.908;8.126;2023-07-30T05:05:35;99855.09;;;18.62;74.79
81397;BME280;70852;49.908;8.126;2023-07-30T05:08:03;99861.81;;;18.57;74.63
81397;BME280;70852;49.908;8.126;2023-07-30T05:10:28;99861.44;;;18.59;73.77
81397;BME280;70852;49.908;8.126;2023-07-30T05:12:56;99843.75;;;18.51;73.92
81397;BME280;70852;49.908;8.126;2023-07-30T05:15:21;99849.81;;;18.57;74.74
81397;BME280;70852;49.908;8.126;2023-07-30T05:17:49;99838.38;;;18.69;73.77
81397;BME280;70852;49.908;8.126;2023-07-30T05:20:14;99845.41;;;18.56;75.10
81397;BME280;70852;49.908;8.126;2023-07-30T05:22:39;99842.75;;;18.67;75.05
81397;BME280;70852;49.908;8.126;2023-07-30T05:25:05;99855.75;;;18.89;73.82
81397;BME280;70852;49.908;8.126;2023-07-30T05:27:33;99858.25;;;19.01;73.54
81397;BME280;70852;49.908;8.126;2023-07-30T05:29:58;99855.59;;;19.19;72.35
81397;BME280;70852;49.908;8.126;2023-07-30T05:32:24;99856.50;;;19.30;71.82
81397;BME280;70852;49.908;8.126;2023-07-30T05:34:50;99847.88;;;19.49;71.35
81397;BME280;70852;49.908;8.126;2023-07-30T05:37:15;99844.63;;;19.47;71.27
81397;BME280;70852;49.908;8.126;2023-07-30T05:39:49;99838.41;;;19.71;71.97
81397;BME280;70852;49.908;8.126;2023-07-30T05:42:17;99839.22;;;19.76;70.96
81397;BME280;70852;49.908;8.126;2023-07-30T05:44:45;99833.97;;;19.63;70.58
81397;BME280;70852;49.908;8.126;2023-07-30T05:47:15;99837.72;;;19.92;71.00
81397;BME280;70852;49.908;8.126;2023-07-30T05:49:42;99832.63;;;20.19;69.70
81397;BME280;70852;49.908;8.126;2023-07-30T05:52:10;99829.38;;;20.14;69.15
81397;BME280;70852;49.908;8.126;2023-07-30T05:54:35;99827.84;;;20.23;69.44
81397;BME280;70852;49.908;8.126;2023-07-30T05:57:01;99837.06;;;20.27;67.94
81397;BME280;70852;49.908;8.126;2023-07-30T05:59:26;99843.47;;;20.28;68.98
81397;BME280;70852;49.908;8.126;2023-07-30T06:01:51;99850.66;;;20.18;70.92
81397;BME280;70852;49.908;8.126;2023-07-30T06:04:17;99852.22;;;20.08;69.51
81397;BME280;70852;49.908;8.126;2023-07-30T06:06:44;99850.66;;;20.18;69.66
81397;BME280;70852;49.908;8.126;2023-07-30T06:09:10;99871.09;;;20.26;69.79
81397;BME280;70852;49.908;8.126;2023-07-30T06:11:39;99862.28;;;20.20;70.89
81397;BME280;70852;49.908;8.126;2023-07-30T06:14:07;99864.69;;;20.25;69.63
81397;BME280;70852;49.908;8.126;2023-07-30T06:16:37;99865.06;;;20.17;69.51
81397;BME280;70852;49.908;8.126;2023-07-30T06:19:08;99867.84;;;20.09;70.24
81397;BME280;70852;49.908;8.126;2023-07-30T06:21:35;99871.75;;;19.91;70.59
81397;BME280;70852;49.908;8.126;2023-07-30T06:24:03;99871.41;;;20.03;70.67
81397;BME280;70852;49.908;8.126;2023-07-30T06:26:30;99877.84;;;20.07;69.98
81397;BME280;70852;49.908;8.126;2023-07-30T06:28:58;99878.59;;;20.04;70.13
81397;BME280;70852;49.908;8.126;2023-07-30T06:31:26;99872.72;;;20.23;70.83
81397;BME280;70852;49.908;8.126;2023-07-30T06:33:54;99879.84;;;20.10;71.23
81397;BME280;70852;49.908;8.126;2023-07-30T06:36:19;99877.22;;;20.42;69.80
81397;BME280;70852;49.908;8.126;2023-07-30T06:38:47;99885.91;;;20.19;70.27
81397;BME280;70852;49.908;8.126;2023-07-30T06:41:12;99889.50;;;20.16;69.96
81397;BME280;70852;49.908;8.126;2023-07-30T06:43:37;99911.47;;;20.07;71.55
81397;BME280;70852;49.908;8.126;2023-07-30T06:46:05;99908.22;;;19.98;71.74
81397;BME280;70852;49.908;8.126;2023-07-30T06:48:32;99916.91;;;19.82;73.13
81397;BME280;70852;49.908;8.126;2023-07-30T06:51:00;99921.63;;;19.67;73.46
81397;BME280;70852;49.908;8.126;2023-07-30T06:53:25;99918.34;;;19.55;75.18
81397;BME280;70852;49.908;8.126;2023-07-30T06:55:50;99923.00;;;19.44;78.00
81397;BME280;70852;49.908;8.126;2023-07-30T06:58:18;99900.59;;;19.44;78.12
81397;BME280;70852;49.908;8.126;2023-07-30T07:00:43;99913.03;;;19.46;80.11
81397;BME280;70852;49.908;8.126;2023-07-30T07:03:09;99907.31;;;19.32;78.08
81397;BME280;70852;49.908;8.126;2023-07-30T07:05:36;99898.63;;;19.44;80.35
81397;BME280;70852;49.908;8.126;2023-07-30T07:08:06;99901.75;;;19.39;80.04
81397;BME280;70852;49.908;8.126;2023-07-30T07:10:34;99900.00;;;19.64;80.48
81397;BME280;70852;49.908;8.126;2023-07-30T07:12:59;99904.72;;;19.53;78.70
81397;BME280;70852;49.908;8.126;2023-07-30T07:15:27;99899.03;;;19.46;78.65
81397;BME280;70852;49.908;8.126;2023-07-30T07:17:52;99898.63;;;19.44;79.63
81397;BME280;70852;49.908;8.126;2023-07-30T07:20:20;99905.16;;;19.59;79.81
81397;BME280;70852;49.908;8.126;2023-07-30T07:22:50;99912.56;;;19.41;81.38
81397;BME280;70852;49.908;8.126;2023-07-30T07:25:18;99900.50;;;19.77;80.98
81397;BME280;70852;49.908;8.126;2023-07-30T07:27:44;99890.19;;;19.95;80.55
81397;BME280;70852;49.908;8.126;2023-07-30T07:30:10;99888.81;;;19.68;78.93
81397;BME280;70852;49.908;8.126;2023-07-30T07:32:37;99891.00;;;19.99;78.96
81397;BME280;70852;49.908;8.126;2023-07-30T07:35:04;99889.25;;;20.50;76.57
81397;BME280;70852;49.908;8.126;2023-07-30T07:37:31;99898.94;;;20.73;75.14
81397;BME280;70852;49.908;8.126;2023-07-30T07:39:59;99892.25;;;21.28;75.47
81397;BME280;70852;49.908;8.126;2023-07-30T07:42:27;99883.38;;;21.54;73.74
81397;BME280;70852;49.908;8.126;2023-07-30T07:44:54;99879.34;;;21.05;73.66
81397;BME280;70852;49.908;8.126;2023-07-30T07:47:24;99888.59;;;21.66;74.41
81397;BME280;70852;49.908;8.126;2023-07-30T07:49:49;99883.63;;;22.27;69.12
81397;BME280;70852;49.908;8.126;2023-07-30T07:52:17;99890.47;;;22.30;69.26
81397;BME280;70852;49.908;8.126;2023-07-30T07:54:46;99895.41;;;21.65;71.83
81397;BME280;70852;49.908;8.126;2023-07-30T07:57:11;99887.69;;;22.19;70.08
81397;BME280;70852;49.908;8.126;2023-07-30T07:59:36;99887.63;;;22.37;69.82
81397;BME280;70852;49.908;8.126;2023-07-30T08:02:06;99899.25;;;22.42;68.09
81397;BME280;70852;49.908;8.126;2023-07-30T08:04:34;99883.66;;;22.20;68.04
81397;BME280;70852;49.908;8.126;2023-07-30T08:07:05;99883.66;;;22.23;72.42
81397;BME280;70852;49.908;8.126;2023-07-30T08:09:31;99874.13;;;21.82;70.54
81397;BME280;70852;49.908;8.126;2023-07-30T08:11:56;99872.47;;;21.95;69.18
81397;BME280;70852;49.908;8.126;2023-07-30T08:14:26;99871.63;;;22.19;68.69
81397;BME280;70852;49.908;8.126;2023-07-30T08:16:51;99872.84;;;22.95;69.47
81397;BME280;70852;49.908;8.126;2023-07-30T08:19:16;99870.09;;;23.40;68.43
81397;BME280;70852;49.908;8.126;2023-07-30T08:21:44;99873.28;;;23.42;68.17
81397;BME280;70852;49.908;8.126;2023-07-30T08:24:12;99873.53;;;22.40;69.81
81397;BME280;70852;49.908;8.126;2023-07-30T08:26:39;99860.41;;;22.12;68.22
81397;BME280;70852;49.908;8.126;2023-07-30T08:29:08;99856.50;;;21.53;70.93
81397;BME280;70852;49.908;8.126;2023-07-30T08:31:37;99865.34;;;21.44;70.16
81397;BME280;70852;49.908;8.126;2023-07-30T08:34:05;99866.94;;;21.17;70.91
81397;BME280;70852;49.908;8.126;2023-07-30T08:36:32;99872.19;;;21.40;69.02
81397;BME280;70852;49.908;8.126;2023-07-30T08:39:01;99864.13;;;21.06;69.16
81397;BME280;70852;49.908;8.126;2023-07-30T08:41:29;99861.69;;;20.91;68.85
81397;BME280;70852;49.908;8.126;2023-07-30T08:44:05;99864.09;;;20.92;70.93
81397;BME280;70852;49.908;8.126;2023-07-30T08:46:32;99879.75;;;20.93;71.23
81397;BME280;70852;49.908;8.126;2023-07-30T08:48:57;99913.72;;;20.60;72.30
81397;BME280;70852;49.908;8.126;2023-07-30T08:51:26;99933.16;;;19.55;78.00
81397;BME280;70852;49.908;8.126;2023-07-30T08:53:53;99930.47;;;18.85;79.00
81397;BME280;70852;49.908;8.126;2023-07-30T08:56:23;99916.31;;;18.71;80.18
81397;BME280;70852;49.908;8.126;2023-07-30T08:58:50;99922.59;;;18.60;78.51
81397;BME280;70852;49.908;8.126;2023-07-30T09:01:17;99930.38;;;18.78;80.73
81397;BME280;70852;49.908;8.126;2023-07-30T09:03:46;99938.56;;;18.97;78.47
81397;BME280;70852;49.908;8.126;2023-07-30T09:06:13;99934.97;;;18.96;76.40
81397;BME280;70852;49.908;8.126;2023-07-30T09:08:38;99940.19;;;18.98;76.69
81397;BME280;70852;49.908;8.126;2023-07-30T09:11:10;99951.59;;;19.19;75.95
81397;BME280;70852;49.908;8.126;2023-07-30T09:13:39;99949.31;;;19.32;75.01
81397;BME280;70852;49.908;8.126;2023-07-30T09:16:12;99965.88;;;19.99;72.83
81397;BME280;70852;49.908;8.126;2023-07-30T09:18:45;99957.16;;;19.56;71.00
81397;BME280;70852;49.908;8.126;2023-07-30T09:21:14;99962.91;;;19.74;70.79
81397;BME280;70852;49.908;8.126;2023-07-30T09:23:44;99969.50;;;20.03;72.46
81397;BME280;70852;49.908;8.126;2023-07-30T09:26:10;99971.59;;;20.17;72.63
81397;BME280;70852;49.908;8.126;2023-07-30T09:28:36;99965.66;;;20.29;70.69
81397;BME280;70852;49.908;8.126;2023-07-30T09:31:03;99962.47;;;21.67;67.76
81397;BME280;70852;49.908;8.126;2023-07-30T09:33:29;99966.47;;;21.34;68.15
81397;BME280;70852;49.908;8.126;2023-07-30T09:35:54;99968.78;;;20.96;66.27
81397;BME280;70852;49.908;8.126;2023-07-30T09:38:22;99974.66;;;20.66;64.80
81397;BME280;70852;49.908;8.126;2023-07-30T09:40:51;99981.78;;;20.42;66.60
81397;BME280;70852;49.908;8.126;2023-07-30T09:43:17;99989.34;;;20.35;67.58
81397;BME280;70852;49.908;8.126;2023-07-30T09:45:46;99990.78;;;20.76;64.72
81397;BME280;70852;49.908;8.126;2023-07-30T09:48:14;100006.03;;;20.86;64.04
81397;BME280;70852;49.908;8.126;2023-07-30T09:50:42;100003.25;;;20.86;62.94
81397;BME280;70852;49.908;8.126;2023-07-30T09:53:13;100010.41;;;20.73;64.15
81397;BME280;70852;49.908;8.126;2023-07-30T09:55:38;100015.28;;;20.25;64.33
81397;BME280;70852;49.908;8.126;2023-07-30T09:58:03;100020.41;;;20.70;62.07
81397;BME280;70852;49.908;8.126;2023-07-30T10:00:29;100019.84;;;22.26;58.03
81397;BME280;70852;49.908;8.126;2023-07-30T10:02:55;100027.97;;;23.84;55.21
81397;BME280;70852;49.908;8.126;2023-07-30T10:05:24;100035.69;;;23.77;51.98
81397;BME280;70852;49.908;8.126;2023-07-30T10:07:59;100025.00;;;24.80;51.35
81397;BME280;70852;49.908;8.126;2023-07-30T10:10:31;100033.72;;;25.27;50.82
81397;BME280;70852;49.908;8.126;2023-07-30T10:13:03;100033.16;;;25.39;45.00
81397;BME280;70852;49.908;8.126;2023-07-30T10:15:33;100046.41;;;25.73;43.96
81397;BME280;70852;49.908;8.126;2023-07-30T10:18:01;100053.84;;;24.65;44.84
81397;BME280;70852;49.908;8.126;2023-07-30T10:20:30;100053.66;;;25.16;45.12
81397;BME280;70852;49.908;8.126;2023-07-30T10:22:59;100044.19;;;25.57;43.51
81397;BME280;70852;49.908;8.126;2023-07-30T10:25:52;100047.13;;;26.04;42.60
81397;BME280;70852;49.908;8.126;2023-07-30T10:28:46;100054.78;;;24.89;41.11
81397;BME280;70852;49.908;8.126;2023-07-30T10:31:11;100040.50;;;25.64;39.98
81397;BME280;70852;49.908;8.126;2023-07-30T10:36:17;100045.75;;;26.12;40.40
81397;BME280;70852;49.908;8.126;2023-07-30T10:38:47;100046.81;;;26.45;38.42
81397;BME280;70852;49.908;8.126;2023-07-30T10:41:16;100070.19;;;25.18;42.47
81397;BME280;70852;49.908;8.126;2023-07-30T10:43:49;100053.88;;;25.29;40.37
81397;BME280;70852;49.908;8.126;2023-07-30T10:46:21;100064.72;;;24.66;43.52
81397;BME280;70852;49.908;8.126;2023-07-30T10:48:47;100068.16;;;23.33;46.91
81397;BME280;70852;49.908;8.126;2023-07-30T10:51:18;100063.25;;;22.39;47.48
81397;BME280;70852;49.908;8.126;2023-07-30T10:53:45;100056.84;;;22.21;48.81
81397;BME280;70852;49.908;8.126;2023-07-30T10:56:16;100068.88;;;21.97;49.89
81397;BME280;70852;49.908;8.126;2023-07-30T10:58:42;100060.44;;;21.68;48.95
81397;BME280;70852;49.908;8.126;2023-07-30T11:01:10;100072.09;;;21.70;50.41
81397;BME280;70852;49.908;8.126;2023-07-30T11:03:38;100081.75;;;21.90;50.60
81397;BME280;70852;49.908;8.126;2023-07-30T11:06:04;100060.03;;;21.59;48.81
81397;BME280;70852;49.908;8.126;2023-07-30T11:08:42;100088.47;;;21.36;49.15
81397;BME280;70852;49.908;8.126;2023-07-30T11:11:13;100079.75;;;22.09;48.04
81397;BME280;70852;49.908;8.126;2023-07-30T11:13:43;100084.16;;;22.38;47.93
81397;BME280;70852;49.908;8.126;2023-07-30T11:16:12;100083.72;;;21.72;49.42
81397;BME280;70852;49.908;8.126;2023-07-30T11:18:40;100098.47;;;21.34;48.23
81397;BME280;70852;49.908;8.126;2023-07-30T11:21:10;100094.75;;;21.05;48.55
81397;BME280;70852;49.908;8.126;2023-07-30T11:23:41;100092.84;;;21.30;48.08
81397;BME280;70852;49.908;8.126;2023-07-30T11:26:19;100096.38;;;23.29;43.66
81397;BME280;70852;49.908;8.126;2023-07-30T11:28:45;100105.00;;;22.83;44.11
81397;BME280;70852;49.908;8.126;2023-07-30T11:31:16;100104.69;;;22.03;45.89
81397;BME280;70852;49.908;8.126;2023-07-30T11:33:48;100111.44;;;21.70;46.37
81397;BME280;70852;49.908;8.126;2023-07-30T11:36:19;100114.22;;;21.74;45.90
81397;BME280;70852;49.908;8.126;2023-07-30T11:38:49;100108.59;;;21.60;47.36
81397;BME280;70852;49.908;8.126;2023-07-30T11:41:18;100113.00;;;21.57;46.72
81397;BME280;70852;49.908;8.126;2023-07-30T11:43:47;100115.00;;;21.64;46.78
81397;BME280;70852;49.908;8.126;2023-07-30T11:46:14;100118.31;;;22.01;47.36
81397;BME280;70852;49.908;8.126;2023-07-30T11:48:46;100119.53;;;22.11;46.53
81397;BME280;70852;49.908;8.126;2023-07-30T11:51:26;100119.13;;;22.26;45.98
81397;BME280;70852;49.908;8.126;2023-07-30T11:53:58;100122.34;;;22.32;45.24
81397;BME280;70852;49.908;8.126;2023-07-30T11:56:33;100127.19;;;22.24;44.92
81397;BME280;70852;49.908;8.126;2023-07-30T11:59:01;100131.88;;;21.64;44.15
81397;BME280;70852;49.908;8.126;2023-07-30T12:01:30;100138.28;;;21.57;46.42
81397;BME280;70852;49.908;8.126;2023-07-30T12:03:57;100144.78;;;21.89;45.56
81397;BME280;70852;49.908;8.126;2023-07-30T12:06:44;100141.16;;;22.92;43.45
81397;BME280;70852;49.908;8.126;2023-07-30T12:09:14;100138.81;;;23.81;40.43
81397;BME280;70852;49.908;8.126;2023-07-30T12:11:46;100155.47;;;24.68;38.44
81397;BME280;70852;49.908;8.126;2023-07-30T12:14:15;100148.16;;;25.12;35.89
81397;BME280;70852;49.908;8.126;2023-07-30T12:16:40;100152.25;;;25.41;33.86
81397;BME280;70852;49.908;8.126;2023-07-30T12:19:07;100150.97;;;25.46;35.42
81397;BME280;70852;49.908;8.126;2023-07-30T12:21:33;100141.75;;;26.26;34.05
81397;BME280;70852;49.908;8.126;2023-07-30T12:23:58;100151.16;;;24.53;34.39
81397;BME280;70852;49.908;8.126;2023-07-30T12:26:26;100140.16;;;25.07;35.01
81397;BME280;70852;49.908;8.126;2023-07-30T12:28:51;100149.47;;;25.38;35.32
81397;BME280;70852;49.908;8.126;2023-07-30T12:31:19;100151.97;;;23.98;35.94
81397;BME280;70852;49.908;8.126;2023-07-30T12:33:44;100138.81;;;23.74;37.88
81397;BME280;70852;49.908;8.126;2023-07-30T12:36:11;100147.00;;;23.58;37.86
81397;BME280;70852;49.908;8.126;2023-07-30T12:38:37;100146.75;;;23.17;39.55
81397;BME280;70852;49.908;8.126;2023-07-30T12:41:02;100151.66;;;22.67;40.11
81397;BME280;70852;49.908;8.126;2023-07-30T12:43:27;100158.50;;;22.58;40.99
81397;BME280;70852;49.908;8.126;2023-07-30T12:45:55;100150.88;;;22.45;40.60
81397;BME280;70852;49.908;8.126;2023-07-30T12:48:20;100143.25;;;22.45;40.62
81397;BME280;70852;49.908;8.126;2023-07-30T12:50:45;100133.72;;;23.48;38.28
81397;BME280;70852;49.908;8.126;2023-07-30T12:53:11;100141.34;;;24.68;36.44
81397;BME280;70852;49.908;8.126;2023-07-30T12:55:36;100139.00;;;24.08;37.97
81397;BME280;70852;49.908;8.126;2023-07-30T12:58:03;100139.50;;;24.51;36.00
81397;BME280;70852;49.908;8.126;2023-07-30T13:00:28;100139.16;;;24.87;36.98
81397;BME280;70852;49.908;8.126;2023-07-30T13:02:54;100134.81;;;24.75;36.48
81397;BME280;70852;49.908;8.126;2023-07-30T13:05:21;100144.94;;;24.69;35.28